createdAt,value
2022-11-13T00:01:26.630Z,102177.31
2022-11-13T00:04:48.099Z,102179.22
2022-11-13T00:08:09.382Z,102177.56
2022-11-13T00:11:30.456Z,102184.91
2022-11-13T00:14:51.596Z,102180.53
2022-11-13T00:18:13.107Z,102180.16
2022-11-13T00:21:33.859Z,102169.13
2022-11-13T00:24:56.930Z,102157.75
2022-11-13T00:28:24.942Z,102176.63
2022-11-13T00:31:45.732Z,102182.78
2022-11-13T00:35:08.259Z,102182.91
2022-11-13T00:38:30.679Z,102155.25
2022-11-13T00:41:52.467Z,102175.66
2022-11-13T00:45:14.241Z,102172.22
2022-11-13T00:48:35.552Z,102191.22
2022-11-13T00:51:56.546Z,102181.59
2022-11-13T00:55:17.516Z,102165.44
2022-11-13T00:58:40.712Z,102169.50
2022-11-13T01:02:02.151Z,102170.78
2022-11-13T01:05:23.214Z,102174.59
2022-11-13T01:08:45.354Z,102157.25
2022-11-13T01:12:06.961Z,102173.63
2022-11-13T01:15:29.442Z,102159.97
2022-11-13T01:18:52.097Z,102167.69
2022-11-13T01:22:13.153Z,102170.06
2022-11-13T01:25:34.104Z,102152.63
2022-11-13T01:28:56.639Z,102148.22
2022-11-13T01:32:17.738Z,102159.75
2022-11-13T01:35:39.257Z,102158.44
2022-11-13T01:39:00.442Z,102151.78
2022-11-13T01:42:21.607Z,102151.16
2022-11-13T01:46:01.128Z,102151.31
2022-11-13T01:49:29.293Z,102141.72
2022-11-13T01:52:50.953Z,102150.38
2022-11-13T01:56:13.838Z,102154.03
2022-11-13T01:59:38.077Z,102152.25
2022-11-13T02:02:59.326Z,102151.22
2022-11-13T02:06:22.148Z,102156.44
2022-11-13T02:09:44.761Z,102148.13
2022-11-13T02:13:06.385Z,102139.22
2022-11-13T02:16:33.155Z,102139.47
2022-11-13T02:20:00.424Z,102143.72
2022-11-13T02:23:26.088Z,102153.47
2022-11-13T02:26:46.997Z,102142.09
2022-11-13T02:30:27.615Z,102142.97
2022-11-13T02:33:48.863Z,102142.88
2022-11-13T02:37:09.706Z,102119.88
2022-11-13T02:40:31.547Z,102146.22
2022-11-13T02:43:52.855Z,102138.50
2022-11-13T02:47:13.758Z,102128.28
2022-11-13T02:50:35.395Z,102125.06
2022-11-13T02:53:56.995Z,102123.91
2022-11-13T02:57:18.205Z,102127.34
2022-11-13T03:00:39.675Z,102115.72
2022-11-13T03:04:00.851Z,102116.91
2022-11-13T03:07:22.028Z,102111.94
2022-11-13T03:10:43.415Z,102109.66
2022-11-13T03:14:04.870Z,102117.88
2022-11-13T03:17:26.115Z,102112.63
2022-11-13T03:20:47.252Z,102118.91
2022-11-13T03:24:09.287Z,102127.25
2022-11-13T03:27:33.058Z,102125.19
2022-11-13T03:30:54.303Z,102122.72
2022-11-13T03:34:15.622Z,102120.97
2022-11-13T03:37:37.679Z,102112.78
2022-11-13T03:40:58.742Z,102122.81
2022-11-13T03:44:20.143Z,102127.69
2022-11-13T03:47:41.521Z,102121.53
2022-11-13T03:51:02.429Z,102123.81
2022-11-13T03:54:23.646Z,102107.91
2022-11-13T03:57:45.812Z,102129.72
2022-11-13T04:01:08.031Z,102118.34
2022-11-13T04:04:29.938Z,102124.88
2022-11-13T04:07:51.340Z,102130.56
2022-11-13T04:11:13.661Z,102134.56
2022-11-13T04:14:34.622Z,102135.06
2022-11-13T04:17:56.173Z,102131.41
2022-11-13T04:21:17.565Z,102137.69
2022-11-13T04:24:39.776Z,102129.47
2022-11-13T04:28:04.171Z,102126.28
2022-11-13T04:31:25.385Z,102128.69
2022-11-13T04:34:46.499Z,102144.19
2022-11-13T04:38:07.292Z,102148.94
2022-11-13T04:41:51.230Z,102144.41
2022-11-13T04:45:13.739Z,102148.47
2022-11-13T04:48:34.934Z,102147.41
2022-11-13T04:51:56.198Z,102135.66
2022-11-13T04:55:17.130Z,102139.72
2022-11-13T04:58:38.349Z,102138.94
2022-11-13T05:01:59.882Z,102141.69
2022-11-13T05:05:21.218Z,102143.47
2022-11-13T05:08:43.470Z,102136.44
2022-11-13T05:12:08.347Z,102136.00
2022-11-13T05:15:29.671Z,102139.41
2022-11-13T05:18:53.690Z,102136.13
2022-11-13T05:22:14.690Z,102135.03
2022-11-13T05:25:36.057Z,102142.75
2022-11-13T05:29:00.785Z,102150.13
2022-11-13T05:32:22.059Z,102139.31
2022-11-13T05:35:43.269Z,102148.22
2022-11-13T05:39:05.770Z,102151.31
2022-11-13T05:42:26.820Z,102153.47
2022-11-13T05:45:47.971Z,102158.22
2022-11-13T05:49:10.822Z,102155.13
2022-11-13T05:52:32.015Z,102136.00
2022-11-13T05:55:53.626Z,102152.91
2022-11-13T05:59:17.197Z,102150.38
2022-11-13T06:02:38.754Z,102155.47
2022-11-13T06:06:00.304Z,102142.91
2022-11-13T06:09:21.631Z,102148.84
2022-11-13T06:12:42.553Z,102149.09
2022-11-13T06:16:09.086Z,102146.34
2022-11-13T06:19:30.662Z,102147.16
2022-11-13T06:22:52.638Z,102141.84
2022-11-13T06:26:21.091Z,102145.16
2022-11-13T06:29:42.394Z,102143.13
2022-11-13T06:33:03.739Z,102144.69
2022-11-13T06:36:28.001Z,102146.22
2022-11-13T06:39:52.244Z,102135.22
2022-11-13T06:43:14.085Z,102131.50
2022-11-13T06:46:36.090Z,102151.09
2022-11-13T06:49:58.412Z,102155.63
2022-11-13T06:53:19.498Z,102157.84
2022-11-13T06:56:45.474Z,102157.50
2022-11-13T07:00:07.987Z,102159.28
2022-11-13T07:03:29.694Z,102140.44
2022-11-13T07:06:50.777Z,102159.19
2022-11-13T07:10:11.665Z,102151.09
2022-11-13T07:13:32.677Z,102161.19
2022-11-13T07:17:10.334Z,102159.75
2022-11-13T07:20:32.391Z,102159.03
2022-11-13T07:23:53.586Z,102158.56
2022-11-13T07:27:14.840Z,102159.28
2022-11-13T07:30:36.281Z,102152.28
2022-11-13T07:33:57.619Z,102157.53
2022-11-13T07:37:18.686Z,102150.84
2022-11-13T07:40:39.638Z,102155.22
2022-11-13T07:44:02.565Z,102151.81
2022-11-13T07:47:26.351Z,102154.19
2022-11-13T07:50:47.761Z,102157.75
2022-11-13T07:54:08.796Z,102159.19
2022-11-13T07:57:30.501Z,102164.03
2022-11-13T08:00:52.257Z,102152.13
2022-11-13T08:04:13.169Z,102153.72
2022-11-13T08:07:34.961Z,102157.78
2022-11-13T08:10:56.108Z,102169.75
2022-11-13T08:14:17.064Z,102168.63
2022-11-13T08:17:38.421Z,102169.53
2022-11-13T08:21:02.117Z,102147.09
2022-11-13T08:24:23.802Z,102162.69
2022-11-13T08:27:44.662Z,102158.34
2022-11-13T08:31:06.344Z,102159.72
2022-11-13T08:34:27.946Z,102177.88
2022-11-13T08:37:49.379Z,102181.81
2022-11-13T08:41:10.387Z,102175.91
2022-11-13T08:44:33.330Z,102185.41
2022-11-13T08:47:56.302Z,102166.72
2022-11-13T08:51:18.782Z,102189.03
2022-11-13T08:54:40.465Z,102158.91
2022-11-13T08:58:02.565Z,102179.66
2022-11-13T09:01:23.526Z,102180.91
2022-11-13T09:04:45.586Z,102171.25
2022-11-13T09:08:07.927Z,102180.56
2022-11-13T09:11:28.882Z,102181.59
2022-11-13T09:14:51.283Z,102181.59
2022-11-13T09:18:12.215Z,102187.06
2022-11-13T09:21:33.623Z,102187.97
2022-11-13T09:24:55.128Z,102179.78
2022-11-13T09:28:16.189Z,102191.34
2022-11-13T09:31:41.288Z,102197.41
2022-11-13T09:35:02.828Z,102193.19
2022-11-13T09:38:26.090Z,102188.59
2022-11-13T09:41:50.457Z,102182.91
2022-11-13T09:45:14.836Z,102175.13
2022-11-13T09:48:42.316Z,102178.31
2022-11-13T09:52:40.680Z,102177.81
2022-11-13T09:56:28.611Z,102167.13
2022-11-13T10:00:02.048Z,102164.56
2022-11-13T10:04:00.026Z,102163.75
2022-11-13T10:07:32.150Z,102158.16
2022-11-13T10:11:05.509Z,102158.00
2022-11-13T10:14:46.430Z,102158.25
2022-11-13T10:18:16.525Z,102151.13
2022-11-13T10:22:07.549Z,102151.94
2022-11-13T10:25:37.119Z,102143.56
2022-11-13T10:29:18.942Z,102144.97
2022-11-13T10:32:39.901Z,102148.06
2022-11-13T10:36:15.667Z,102136.72
2022-11-13T10:39:46.346Z,102134.22
2022-11-13T10:43:23.150Z,102139.53
2022-11-13T10:46:44.013Z,102130.34
2022-11-13T10:50:31.904Z,102129.19
2022-11-13T10:53:53.818Z,102127.50
2022-11-13T10:57:30.532Z,102133.22
2022-11-13T11:00:53.055Z,102126.59
2022-11-13T11:04:21.082Z,102123.66
2022-11-13T11:07:42.576Z,102127.16
2022-11-13T11:11:27.900Z,102123.94
2022-11-13T11:15:01.641Z,102127.06
2022-11-13T11:18:29.280Z,102130.00
2022-11-13T11:21:53.141Z,102121.56
2022-11-13T11:25:27.621Z,102123.59
2022-11-13T11:29:14.962Z,102129.56
2022-11-13T11:32:47.935Z,102127.41
2022-11-13T11:36:22.351Z,102114.22
2022-11-13T11:39:46.914Z,102107.63
2022-11-13T11:43:12.387Z,102110.38
2022-11-13T11:46:33.538Z,102116.91
2022-11-13T11:49:55.312Z,102099.63
2022-11-13T11:53:39.720Z,102101.53
2022-11-13T11:57:33.455Z,102097.63
2022-11-13T12:01:02.322Z,102093.81
2022-11-13T12:04:29.200Z,102099.53
2022-11-13T12:07:56.119Z,102094.09
2022-11-13T12:11:30.982Z,102083.16
2022-11-13T12:15:10.458Z,102079.84
2022-11-13T12:18:49.629Z,102077.13
2022-11-13T12:22:16.591Z,102081.13
2022-11-13T12:25:51.648Z,102082.53
2022-11-13T12:29:47.688Z,102076.56
2022-11-13T12:33:45.869Z,102064.09
2022-11-13T12:37:12.816Z,102063.81
2022-11-13T12:41:12.574Z,102061.91
2022-11-13T12:45:00.936Z,102068.66
2022-11-13T12:48:35.879Z,102053.56
2022-11-13T12:52:16.129Z,102063.47
2022-11-13T12:55:39.527Z,102064.56
2022-11-13T12:59:29.779Z,102063.75
2022-11-13T13:02:56.868Z,102064.19
2022-11-13T13:06:30.452Z,102067.09
2022-11-13T13:10:03.691Z,102065.41
2022-11-13T13:13:55.226Z,102060.50
2022-11-13T13:17:16.014Z,102051.34
2022-11-13T13:20:41.327Z,102060.22
2022-11-13T13:24:27.435Z,102065.72
2022-11-13T13:27:57.754Z,102051.81
2022-11-13T13:31:43.066Z,102060.19
2022-11-13T13:35:21.525Z,102055.78
2022-11-13T13:46:57.391Z,102066.00
2022-11-13T13:50:22.689Z,102062.66
2022-11-13T13:53:43.903Z,102053.63
2022-11-13T13:57:05.060Z,102063.28
2022-11-13T14:00:27.120Z,102055.47
2022-11-13T14:03:48.819Z,102058.22
2022-11-13T14:07:27.847Z,102057.34
2022-11-13T14:10:49.435Z,102050.84
2022-11-13T14:14:21.993Z,102039.97
2022-11-13T14:17:45.745Z,102022.50
2022-11-13T14:21:16.271Z,102038.41
2022-11-13T14:24:47.735Z,102038.31
2022-11-13T14:28:19.737Z,102043.34
2022-11-13T14:31:41.122Z,102031.28
2022-11-13T14:35:03.627Z,102035.75
2022-11-13T14:38:28.050Z,102030.06
2022-11-13T14:41:54.709Z,102038.66
2022-11-13T14:45:16.590Z,102026.56
2022-11-13T14:48:47.047Z,102016.28
2022-11-13T14:52:20.064Z,102014.38
2022-11-13T14:56:05.733Z,101985.84
2022-11-13T14:59:29.425Z,101989.00
2022-11-13T15:02:50.631Z,101990.19
2022-11-13T15:06:41.055Z,101994.56
2022-11-13T15:10:02.292Z,101989.69
2022-11-13T15:13:23.850Z,101973.28
2022-11-13T15:16:46.622Z,101973.44
2022-11-13T15:20:10.493Z,101981.88
2022-11-13T15:23:31.681Z,101969.00
2022-11-13T15:26:52.991Z,101946.91
2022-11-13T15:30:14.463Z,101957.31
2022-11-13T15:33:35.683Z,101973.38
2022-11-13T15:36:56.696Z,101964.03
2022-11-13T15:40:18.962Z,101963.03
2022-11-13T15:43:42.662Z,101970.47
2022-11-13T15:47:04.435Z,101966.19
2022-11-13T15:50:25.734Z,101971.47
2022-11-13T15:53:49.718Z,101967.75
2022-11-13T15:57:31.261Z,101956.91
2022-11-13T16:00:52.214Z,101944.84
2022-11-13T16:04:15.086Z,101956.69
2022-11-13T16:07:39.865Z,101961.41
2022-11-13T16:11:04.254Z,101955.84
2022-11-13T16:14:25.599Z,101946.53
2022-11-13T16:17:49.518Z,101949.81
2022-11-13T16:21:14.433Z,101951.81
2022-11-13T16:24:35.495Z,101965.41
2022-11-13T16:27:56.621Z,101961.19
2022-11-13T16:31:18.070Z,101957.47
2022-11-13T16:34:40.005Z,101954.50
2022-11-13T16:38:01.213Z,101951.25
2022-11-13T16:41:23.878Z,101952.31
2022-11-13T16:44:45.132Z,101964.75
2022-11-13T16:48:07.308Z,101945.63
2022-11-13T16:51:28.502Z,101975.34
2022-11-13T16:54:51.618Z,101985.56
2022-11-13T16:58:15.224Z,101977.25
2022-11-13T17:01:36.725Z,101982.88
2022-11-13T17:04:57.761Z,101988.88
2022-11-13T17:08:21.886Z,101985.78
2022-11-13T17:11:43.589Z,101968.56
2022-11-13T17:15:04.846Z,101972.19
2022-11-13T17:18:26.518Z,101975.44
2022-11-13T17:21:48.305Z,101967.97
2022-11-13T17:25:09.679Z,101979.00
2022-11-13T17:28:31.277Z,101960.94
2022-11-13T17:31:52.555Z,101971.66
2022-11-13T17:35:14.229Z,101967.16
2022-11-13T17:38:35.292Z,101981.59
2022-11-13T17:41:56.918Z,101965.28
2022-11-13T17:45:18.211Z,101978.31
2022-11-13T17:48:44.270Z,101977.84
2022-11-13T17:52:06.084Z,101978.16
2022-11-13T17:55:27.775Z,101980.53
2022-11-13T17:58:49.436Z,101983.19
2022-11-13T18:02:12.977Z,101980.81
2022-11-13T18:05:40.516Z,101973.41
2022-11-13T18:09:02.245Z,101966.56
2022-11-13T18:12:25.522Z,101972.25
2022-11-13T18:15:46.811Z,101978.69
2022-11-13T18:19:09.917Z,101983.38
2022-11-13T18:26:15.721Z,101996.69
2022-11-13T18:29:36.386Z,102001.06
2022-11-13T18:32:57.311Z,102007.63
2022-11-13T18:36:18.399Z,102001.94
2022-11-13T18:39:39.228Z,102005.72
2022-11-13T18:43:00.019Z,102002.50
2022-11-13T18:46:24.116Z,101999.03
2022-11-13T18:49:44.916Z,101997.50
2022-11-13T18:53:05.742Z,101998.06
2022-11-13T18:56:31.617Z,101992.34
2022-11-13T18:59:52.791Z,101988.13
2022-11-13T19:03:13.721Z,101988.28
2022-11-13T19:06:35.473Z,101990.84
2022-11-13T19:09:56.199Z,101986.41
2022-11-13T19:13:16.880Z,101992.75
2022-11-13T19:16:40.038Z,101986.88
2022-11-13T19:20:00.985Z,101987.28
2022-11-13T19:23:21.858Z,101985.16
2022-11-13T19:26:44.173Z,101989.03
2022-11-13T19:30:06.966Z,101989.63
2022-11-13T19:33:28.653Z,101996.81
2022-11-13T19:36:51.486Z,101990.56
2022-11-13T19:40:12.421Z,101989.44
2022-11-13T19:43:37.913Z,101985.28
2022-11-13T19:46:58.870Z,101984.41
2022-11-13T19:50:19.870Z,101985.63
2022-11-13T19:53:48.029Z,101978.28
2022-11-13T19:57:09.253Z,101990.84
2022-11-13T20:00:30.144Z,101979.31
2022-11-13T20:03:58.842Z,101980.16
2022-11-13T20:07:19.952Z,101981.25
2022-11-13T20:10:41.179Z,101978.59
2022-11-13T20:14:02.282Z,101978.88
2022-11-13T20:17:23.540Z,101986.47
2022-11-13T20:20:44.973Z,101978.19
2022-11-13T20:24:06.046Z,101985.41
2022-11-13T20:27:27.157Z,101972.25
2022-11-13T20:30:48.390Z,101974.38
2022-11-13T20:34:09.482Z,101972.34
2022-11-13T20:37:30.550Z,101978.66
2022-11-13T20:40:51.401Z,101971.53
2022-11-13T20:44:12.586Z,101964.13
2022-11-13T20:47:35.293Z,101964.78
2022-11-13T20:50:56.308Z,101968.78
2022-11-13T20:54:17.046Z,101959.56
2022-11-13T20:57:40.949Z,101962.91
2022-11-13T21:01:06.559Z,101958.50
2022-11-13T21:04:27.526Z,101956.34
2022-11-13T21:07:48.612Z,101960.75
2022-11-13T21:11:19.095Z,101958.03
2022-11-13T21:14:40.014Z,101956.97
2022-11-13T21:18:00.920Z,101948.22
2022-11-13T21:21:22.642Z,101953.81
2022-11-13T21:24:43.898Z,101941.91
2022-11-13T21:28:04.924Z,101952.13
2022-11-13T21:31:26.681Z,101944.47
2022-11-13T21:34:47.530Z,101939.31
2022-11-13T21:38:08.385Z,101941.31
2022-11-13T21:41:29.209Z,101942.75
2022-11-13T21:44:50.274Z,101941.38
2022-11-13T21:48:11.245Z,101938.63
2022-11-13T21:51:33.712Z,101937.44
2022-11-13T21:54:54.385Z,101931.97
2022-11-13T21:58:15.390Z,101937.16
2022-11-13T22:01:38.621Z,101940.50
2022-11-13T22:04:59.882Z,101941.91
2022-11-13T22:08:21.141Z,101931.41
2022-11-13T22:11:42.280Z,101933.06
2022-11-13T22:15:02.766Z,101929.38
2022-11-13T22:18:23.500Z,101922.28
2022-11-13T22:21:44.431Z,101917.03
2022-11-13T22:25:05.966Z,101919.84
2022-11-13T22:28:27.317Z,101919.75
2022-11-13T22:31:48.451Z,101927.34
2022-11-13T22:35:09.775Z,101915.22
2022-11-13T22:38:31.084Z,101914.59
2022-11-13T22:41:51.957Z,101916.22
2022-11-13T22:45:23.156Z,101908.41
2022-11-13T22:48:46.283Z,101902.34
2022-11-13T22:52:07.350Z,101903.03
2022-11-13T22:55:28.194Z,101907.59
2022-11-13T22:58:49.541Z,101904.75
2022-11-13T23:02:10.613Z,101900.13
2022-11-13T23:05:31.712Z,101898.69
2022-11-13T23:08:53.069Z,101895.03
2022-11-13T23:12:13.903Z,101892.03
2022-11-13T23:15:34.647Z,101898.53
2022-11-13T23:18:57.308Z,101887.78
2022-11-13T23:22:18.162Z,101880.22
2022-11-13T23:25:39.115Z,101873.56
2022-11-13T23:29:00.138Z,101875.84
2022-11-13T23:32:21.102Z,101875.41
2022-11-13T23:35:45.225Z,101872.84
2022-11-13T23:39:06.324Z,101867.59
2022-11-13T23:42:45.695Z,101868.50
2022-11-13T23:46:07.228Z,101874.66
2022-11-13T23:49:28.311Z,101876.19
2022-11-13T23:52:49.754Z,101855.69
2022-11-13T23:56:10.358Z,101866.81
2022-11-13T23:59:31.710Z,101855.78
